createdAt,value
2022-08-26T00:01:56.060Z,97440.25
2022-08-26T00:04:25.451Z,97429.78
2022-08-26T00:06:55.803Z,97434.69
2022-08-26T00:09:23.627Z,97435.50
2022-08-26T00:11:52.570Z,97439.16
2022-08-26T00:14:19.303Z,97439.56
2022-08-26T00:16:47.524Z,97447.94
2022-08-26T00:19:17.773Z,97439.75
2022-08-26T00:21:46.299Z,97440.97
2022-08-26T00:24:17.823Z,97439.75
2022-08-26T00:26:44.851Z,97431.56
2022-08-26T00:29:12.221Z,97438.13
2022-08-26T00:31:39.230Z,97433.78
2022-08-26T00:34:07.189Z,97437.44
2022-08-26T00:36:36.838Z,97431.69
2022-08-26T00:39:04.375Z,97435.94
2022-08-26T00:41:31.051Z,97440.03
2022-08-26T00:43:57.700Z,97434.94
2022-08-26T00:46:31.400Z,97433.28
2022-08-26T00:49:11.933Z,97433.72
2022-08-26T00:51:49.543Z,97428.41
2022-08-26T00:54:17.880Z,97440.25
2022-08-26T00:57:00.416Z,97431.25
2022-08-26T00:59:29.203Z,97430.63
2022-08-26T01:02:00.576Z,97434.94
2022-08-26T01:04:31.344Z,97433.09
2022-08-26T01:06:59.781Z,97433.66
2022-08-26T01:09:27.069Z,97441.84
2022-08-26T01:11:57.319Z,97434.44
2022-08-26T01:14:27.052Z,97436.84
2022-08-26T01:16:53.713Z,97431.53
2022-08-26T01:19:29.094Z,97427.59
2022-08-26T01:22:10.171Z,97432.94
2022-08-26T01:24:39.090Z,97432.75
2022-08-26T01:27:08.621Z,97433.97
2022-08-26T01:29:38.438Z,97437.50
2022-08-26T01:32:08.868Z,97438.53
2022-08-26T01:34:37.940Z,97432.56
2022-08-26T01:37:06.998Z,97428.47
2022-08-26T01:39:39.442Z,97426.59
2022-08-26T01:42:10.281Z,97430.91
2022-08-26T01:44:52.238Z,97429.03
2022-08-26T01:47:21.493Z,97423.06
2022-08-26T01:49:51.520Z,97429.41
2022-08-26T01:52:24.410Z,97418.50
2022-08-26T01:54:57.350Z,97430.53
2022-08-26T01:57:25.409Z,97430.13
2022-08-26T01:59:55.216Z,97430.13
2022-08-26T02:02:23.085Z,97423.97
2022-08-26T02:04:57.065Z,97431.31
2022-08-26T02:07:26.507Z,97427.63
2022-08-26T02:09:54.454Z,97427.84
2022-08-26T02:12:21.706Z,97420.06
2022-08-26T02:14:55.583Z,97421.44
2022-08-26T02:17:29.196Z,97423.72
2022-08-26T02:19:56.457Z,97423.09
2022-08-26T02:22:24.745Z,97425.13
2022-08-26T02:24:59.012Z,97430.81
2022-08-26T02:27:32.158Z,97434.50
2022-08-26T02:30:25.306Z,97432.41
2022-08-26T02:32:53.950Z,97433.84
2022-08-26T02:35:23.238Z,97430.38
2022-08-26T02:37:55.832Z,97435.25
2022-08-26T02:40:28.547Z,97427.84
2022-08-26T02:42:55.888Z,97429.03
2022-08-26T02:45:24.643Z,97428.59
2022-08-26T02:47:52.521Z,97421.59
2022-08-26T02:50:20.970Z,97420.97
2022-08-26T02:52:48.526Z,97421.81
2022-08-26T02:55:16.140Z,97425.06
2022-08-26T02:57:43.085Z,97418.31
2022-08-26T03:00:13.124Z,97422.81
2022-08-26T03:02:40.164Z,97420.41
2022-08-26T03:05:07.826Z,97420.78
2022-08-26T03:07:34.597Z,97415.84
2022-08-26T03:10:01.242Z,97407.25
2022-08-26T03:12:35.637Z,97409.69
2022-08-26T03:15:02.441Z,97408.13
2022-08-26T03:17:44.431Z,97408.13
2022-08-26T03:20:11.377Z,97412.00
2022-08-26T03:22:40.642Z,97411.59
2022-08-26T03:25:10.146Z,97421.19
2022-08-26T03:27:36.842Z,97403.31
2022-08-26T03:30:23.205Z,97406.22
2022-08-26T03:32:50.258Z,97401.94
2022-08-26T03:35:17.032Z,97403.94
2022-08-26T03:37:43.798Z,97405.16
2022-08-26T03:40:14.091Z,97404.75
2022-08-26T03:42:41.403Z,97402.28
2022-08-26T03:45:13.431Z,97406.44
2022-08-26T03:47:42.416Z,97404.34
2022-08-26T03:50:12.403Z,97403.50
2022-08-26T03:52:43.497Z,97401.22
2022-08-26T03:55:11.181Z,97399.69
2022-08-26T03:57:37.827Z,97409.50
2022-08-26T04:00:08.322Z,97400.50
2022-08-26T04:02:35.425Z,97402.03
2022-08-26T04:05:02.952Z,97406.28
2022-08-26T04:07:30.394Z,97405.66
2022-08-26T04:09:58.991Z,97407.66
2022-08-26T04:12:26.186Z,97415.25
2022-08-26T04:14:53.823Z,97403.38
2022-08-26T04:17:25.067Z,97403.56
2022-08-26T04:19:54.994Z,97404.56
2022-08-26T04:22:24.812Z,97406.22
2022-08-26T04:24:52.412Z,97407.03
2022-08-26T04:27:19.204Z,97406.22
2022-08-26T04:29:46.616Z,97401.91
2022-08-26T04:32:14.735Z,97412.16
2022-08-26T04:34:43.438Z,97408.31
2022-08-26T04:37:13.181Z,97413.88
2022-08-26T04:39:40.395Z,97412.66
2022-08-26T04:42:07.221Z,97420.63
2022-08-26T04:44:35.431Z,97412.09
2022-08-26T04:47:02.242Z,97413.19
2022-08-26T04:49:35.469Z,97413.44
2022-08-26T04:52:02.782Z,97418.59
2022-08-26T04:54:32.068Z,97409.69
2022-08-26T04:56:59.183Z,97413.22
2022-08-26T04:59:25.912Z,97407.16
2022-08-26T05:01:56.449Z,97408.03
2022-08-26T05:04:23.329Z,97409.09
2022-08-26T05:06:50.884Z,97406.09
2022-08-26T05:09:19.302Z,97410.66
2022-08-26T05:11:48.594Z,97409.50
2022-08-26T05:14:18.606Z,97416.94
2022-08-26T05:16:45.465Z,97413.72
2022-08-26T05:19:15.298Z,97415.66
2022-08-26T05:21:47.252Z,97420.88
2022-08-26T05:24:14.837Z,97423.22
2022-08-26T05:26:41.924Z,97421.44
2022-08-26T05:29:11.644Z,97423.53
2022-08-26T05:31:38.920Z,97419.06
2022-08-26T05:34:05.963Z,97422.41
2022-08-26T05:36:35.692Z,97416.47
2022-08-26T05:39:06.136Z,97412.66
2022-08-26T05:41:38.572Z,97410.19
2022-08-26T05:44:07.487Z,97415.13
2022-08-26T05:46:36.605Z,97415.53
2022-08-26T05:49:05.018Z,97419.34
2022-08-26T05:51:32.800Z,97416.03
2022-08-26T05:54:02.305Z,97423.31
2022-08-26T05:56:30.682Z,97432.06
2022-08-26T05:58:58.377Z,97415.56
2022-08-26T06:01:28.599Z,97418.78
2022-08-26T06:04:01.776Z,97423.31
2022-08-26T06:06:34.555Z,97416.50
2022-08-26T06:09:04.423Z,97414.03
2022-08-26T06:11:33.119Z,97425.59
2022-08-26T06:14:05.371Z,97426.34
2022-08-26T06:16:35.260Z,97420.38
2022-08-26T06:19:11.071Z,97420.72
2022-08-26T06:21:41.186Z,97426.97
2022-08-26T06:24:29.230Z,97416.06
2022-08-26T06:27:01.925Z,97411.47
2022-08-26T06:29:30.899Z,97413.09
2022-08-26T06:31:58.247Z,97403.97
2022-08-26T06:34:30.561Z,97400.88
2022-08-26T06:36:59.856Z,97398.78
2022-08-26T06:39:30.717Z,97399.59
2022-08-26T06:41:59.237Z,97397.59
2022-08-26T06:44:26.860Z,97404.53
2022-08-26T06:46:53.868Z,97404.22
2022-08-26T06:49:27.233Z,97407.28
2022-08-26T06:51:58.202Z,97404.41
2022-08-26T06:54:26.143Z,97405.69
2022-08-26T06:56:55.875Z,97405.91
2022-08-26T06:59:23.989Z,97403.63
2022-08-26T07:01:50.771Z,97404.78
2022-08-26T07:04:20.337Z,97403.91
2022-08-26T07:06:52.405Z,97398.53
2022-08-26T07:09:22.010Z,97392.88
2022-08-26T07:11:49.307Z,97393.09
2022-08-26T07:14:16.829Z,97395.88
2022-08-26T07:16:47.456Z,97398.66
2022-08-26T07:19:14.430Z,97393.16
2022-08-26T07:21:44.129Z,97387.19
2022-08-26T07:24:11.378Z,97390.81
2022-08-26T07:26:39.300Z,97387.88
2022-08-26T07:29:12.376Z,97383.72
2022-08-26T07:31:42.227Z,97383.16
2022-08-26T07:34:09.348Z,97387.22
2022-08-26T07:36:36.616Z,97387.72
2022-08-26T07:39:03.560Z,97383.66
2022-08-26T07:44:02.335Z,97381.84
2022-08-26T07:46:31.169Z,97384.03
2022-08-26T07:48:58.698Z,97385.16
2022-08-26T07:51:27.164Z,97384.19
2022-08-26T07:53:56.927Z,97380.72
2022-08-26T07:56:25.244Z,97385.91
2022-08-26T07:58:52.944Z,97380.94
2022-08-26T08:01:25.723Z,97380.00
2022-08-26T08:03:53.963Z,97374.59
2022-08-26T08:06:22.542Z,97373.75
2022-08-26T08:08:55.196Z,97378.06
2022-08-26T08:11:23.657Z,97375.03
2022-08-26T08:13:56.071Z,97371.13
2022-08-26T08:16:25.932Z,97367.47
2022-08-26T08:18:53.413Z,97365.88
2022-08-26T08:21:21.963Z,97362.00
2022-08-26T08:23:52.394Z,97357.28
2022-08-26T08:26:19.153Z,97363.63
2022-08-26T08:28:47.858Z,97359.09
2022-08-26T08:31:45.119Z,97368.00
2022-08-26T08:34:10.242Z,97358.41
2022-08-26T08:36:36.880Z,97353.63
2022-08-26T08:39:03.743Z,97357.28
2022-08-26T08:41:31.347Z,97355.97
2022-08-26T08:44:00.590Z,97355.25
2022-08-26T08:46:28.251Z,97355.75
2022-08-26T08:48:59.677Z,97363.38
2022-08-26T08:51:35.579Z,97365.63
2022-08-26T08:54:02.771Z,97355.78
2022-08-26T08:56:57.608Z,97353.03
2022-08-26T08:59:31.325Z,97344.47
2022-08-26T09:02:08.143Z,97349.13
2022-08-26T09:05:02.906Z,97354.22
2022-08-26T09:07:36.866Z,97353.41
2022-08-26T09:10:39.002Z,97344.59
2022-08-26T09:13:09.371Z,97355.94
2022-08-26T09:15:49.556Z,97348.03
2022-08-26T09:18:46.967Z,97350.41
2022-08-26T09:21:18.870Z,97351.22
2022-08-26T09:23:49.505Z,97346.41
2022-08-26T09:26:39.338Z,97347.28
2022-08-26T09:29:15.522Z,97341.72
2022-08-26T09:31:42.550Z,97342.06
2022-08-26T09:34:17.252Z,97330.59
2022-08-26T09:36:54.989Z,97337.03
2022-08-26T09:39:33.694Z,97337.88
2022-08-26T09:42:10.299Z,97337.50
2022-08-26T09:44:58.054Z,97334.59
2022-08-26T09:47:33.891Z,97341.56
2022-08-26T09:50:29.122Z,97335.28
2022-08-26T09:53:09.823Z,97335.88
2022-08-26T09:55:42.058Z,97332.78
2022-08-26T09:58:14.544Z,97335.88
2022-08-26T10:00:56.417Z,97324.84
2022-08-26T10:03:27.662Z,97324.56
2022-08-26T10:06:08.342Z,97325.78
2022-08-26T10:08:44.170Z,97318.31
2022-08-26T10:11:26.485Z,97313.59
2022-08-26T10:14:04.715Z,97308.25
2022-08-26T10:16:48.575Z,97316.69
2022-08-26T10:19:55.864Z,97314.78
2022-08-26T10:22:26.144Z,97307.41
2022-08-26T10:24:58.794Z,97306.31
2022-08-26T10:27:53.731Z,97308.97
2022-08-26T10:30:31.697Z,97297.25
2022-08-26T10:33:07.127Z,97305.28
2022-08-26T10:35:37.125Z,97295.66
2022-08-26T10:38:16.723Z,97295.22
2022-08-26T10:40:58.952Z,97291.56
2022-08-26T10:43:41.007Z,97287.13
2022-08-26T10:46:16.325Z,97276.13
2022-08-26T10:48:57.637Z,97278.38
2022-08-26T10:51:35.547Z,97277.78
2022-08-26T10:54:13.307Z,97279.47
2022-08-26T10:56:57.559Z,97272.03
2022-08-26T10:59:31.287Z,97276.25
2022-08-26T11:02:03.739Z,97270.50
2022-08-26T11:04:45.772Z,97271.88
2022-08-26T11:07:33.473Z,97271.56
2022-08-26T11:10:04.403Z,97275.94
2022-08-26T11:12:37.441Z,97274.25
2022-08-26T11:15:11.206Z,97272.78
2022-08-26T11:17:46.335Z,97275.44
2022-08-26T11:20:39.161Z,97266.97
2022-08-26T11:23:22.375Z,97259.50
2022-08-26T11:26:07.583Z,97268.81
2022-08-26T11:28:44.243Z,97261.72
2022-08-26T11:31:51.576Z,97256.53
2022-08-26T11:35:00.458Z,97262.13
2022-08-26T11:37:33.287Z,97248.88
2022-08-26T11:40:02.990Z,97248.34
2022-08-26T11:42:40.869Z,97249.88
2022-08-26T11:45:36.130Z,97241.84
2022-08-26T11:48:22.372Z,97237.16
2022-08-26T11:51:22.363Z,97240.28
2022-08-26T11:53:49.354Z,97233.84
2022-08-26T11:56:26.997Z,97238.50
2022-08-26T11:59:02.024Z,97231.31
2022-08-26T12:01:35.799Z,97232.78
2022-08-26T12:04:05.803Z,97232.13
2022-08-26T12:06:45.314Z,97228.78
2022-08-26T12:09:35.592Z,97226.25
2022-08-26T12:12:12.117Z,97218.00
2022-08-26T12:14:39.621Z,97218.47
2022-08-26T12:17:14.121Z,97208.88
2022-08-26T12:19:40.868Z,97204.41
2022-08-26T12:22:20.947Z,97194.81
2022-08-26T12:24:52.239Z,97201.81
2022-08-26T12:27:27.292Z,97205.47
2022-08-26T12:30:13.993Z,97198.59
2022-08-26T12:32:57.593Z,97198.34
2022-08-26T12:35:26.798Z,97179.66
2022-08-26T12:37:54.380Z,97183.66
2022-08-26T12:40:31.354Z,97181.59
2022-08-26T12:43:00.799Z,97182.69
2022-08-26T12:45:33.696Z,97181.06
2022-08-26T12:48:10.556Z,97187.50
2022-08-26T12:50:49.043Z,97179.03
2022-08-26T12:53:22.563Z,97181.81
2022-08-26T12:55:53.955Z,97169.97
2022-08-26T12:58:31.667Z,97158.88
2022-08-26T13:01:04.758Z,97164.19
2022-08-26T13:03:34.400Z,97159.84
2022-08-26T13:06:16.475Z,97148.34
2022-08-26T13:09:08.846Z,97156.03
2022-08-26T13:11:35.645Z,97145.00
2022-08-26T13:14:08.205Z,97153.66
2022-08-26T13:16:36.911Z,97146.81
2022-08-26T13:19:10.368Z,97140.56
2022-08-26T13:21:49.377Z,97141.88
2022-08-26T13:24:22.423Z,97135.28
2022-08-26T13:26:50.067Z,97128.78
2022-08-26T13:29:17.903Z,97128.94
2022-08-26T13:31:45.915Z,97125.00
2022-08-26T13:34:18.055Z,97125.28
2022-08-26T13:36:45.794Z,97123.66
2022-08-26T13:39:13.351Z,97120.47
2022-08-26T13:41:40.165Z,97111.97
2022-08-26T13:44:07.134Z,97107.31
2022-08-26T13:46:34.204Z,97108.66
2022-08-26T13:49:01.035Z,97108.06
2022-08-26T13:51:28.444Z,97102.22
2022-08-26T13:53:56.431Z,97104.50
2022-08-26T13:56:23.940Z,97104.81
2022-08-26T13:58:50.659Z,97098.44
2022-08-26T14:01:17.891Z,97102.81
2022-08-26T14:03:45.671Z,97091.78
2022-08-26T14:06:15.032Z,97096.94
2022-08-26T14:08:42.648Z,97092.66
2022-08-26T14:11:09.812Z,97087.97
2022-08-26T14:13:36.996Z,97088.78
2022-08-26T14:16:07.868Z,97087.75
2022-08-26T14:18:41.781Z,97090.03
2022-08-26T14:21:12.891Z,97082.97
2022-08-26T14:23:40.213Z,97087.19
2022-08-26T14:26:11.678Z,97087.38
2022-08-26T14:28:54.565Z,97078.94
2022-08-26T14:31:23.389Z,97078.88
2022-08-26T14:33:50.311Z,97082.34
2022-08-26T14:36:28.980Z,97083.25
2022-08-26T14:38:56.976Z,97075.63
2022-08-26T14:41:27.167Z,97068.38
2022-08-26T14:44:15.079Z,97071.13
2022-08-26T14:46:48.566Z,97063.44
2022-08-26T14:49:16.657Z,97065.94
2022-08-26T14:51:43.485Z,97064.47
2022-08-26T14:54:14.682Z,97073.13
2022-08-26T14:56:49.401Z,97065.25
2022-08-26T14:59:22.660Z,97063.69
2022-08-26T15:01:49.718Z,97062.84
2022-08-26T15:04:17.290Z,97062.13
2022-08-26T15:06:44.166Z,97057.50
2022-08-26T15:09:11.258Z,97053.28
2022-08-26T15:11:40.443Z,97048.81
2022-08-26T15:14:07.561Z,97045.81
2022-08-26T15:16:41.715Z,97037.25
2022-08-26T15:19:08.544Z,97042.69
2022-08-26T15:21:36.537Z,97034.31
2022-08-26T15:24:04.599Z,97036.63
2022-08-26T15:26:32.747Z,97036.25
2022-08-26T15:29:03.061Z,97032.94
2022-08-26T15:31:33.834Z,97026.06
2022-08-26T15:34:04.506Z,97016.78
2022-08-26T15:36:33.217Z,97021.78
2022-08-26T15:39:00.845Z,97020.38
2022-08-26T15:41:29.329Z,97026.03
2022-08-26T15:43:56.984Z,97020.38
2022-08-26T15:46:24.186Z,97019.06
2022-08-26T15:48:51.860Z,97023.66
2022-08-26T15:51:33.873Z,97019.88
2022-08-26T15:54:02.102Z,97021.97
2022-08-26T15:56:32.484Z,97018.19
2022-08-26T15:59:02.297Z,97024.44
2022-08-26T16:01:31.723Z,97020.28
2022-08-26T16:03:58.654Z,97022.50
2022-08-26T16:06:28.753Z,97023.28
2022-08-26T16:08:56.324Z,97018.41
2022-08-26T16:11:23.647Z,97014.03
2022-08-26T16:13:50.605Z,97016.47
2022-08-26T16:16:17.779Z,97018.19
2022-08-26T16:18:45.302Z,97005.47
2022-08-26T16:21:21.549Z,97016.31
2022-08-26T16:23:48.644Z,97019.69
2022-08-26T16:26:19.158Z,97021.91
2022-08-26T16:28:45.966Z,97024.19
2022-08-26T16:31:13.716Z,97022.66
2022-08-26T16:33:40.733Z,97023.31
2022-08-26T16:36:08.783Z,97020.94
2022-08-26T16:38:36.597Z,97030.00
2022-08-26T16:41:04.275Z,97026.50
2022-08-26T16:43:31.018Z,97017.63
2022-08-26T16:45:57.799Z,97015.72
2022-08-26T16:48:24.630Z,97014.13
2022-08-26T16:50:51.684Z,97027.38
2022-08-26T16:53:18.980Z,97026.28
2022-08-26T16:55:48.326Z,97025.72
2022-08-26T16:58:15.423Z,97031.88
2022-08-26T17:00:42.868Z,97026.69
2022-08-26T17:03:10.014Z,97031.50
2022-08-26T17:05:37.108Z,97023.91
2022-08-26T17:08:04.223Z,97027.59
2022-08-26T17:10:31.855Z,97028.59
2022-08-26T17:12:58.866Z,97036.09
2022-08-26T17:15:25.996Z,97028.47
2022-08-26T17:17:53.791Z,97027.84
2022-08-26T17:20:22.466Z,97030.97
2022-08-26T17:22:51.021Z,97029.50
2022-08-26T17:25:24.081Z,97026.41
2022-08-26T17:27:51.629Z,97021.59
2022-08-26T17:30:18.974Z,97028.75
2022-08-26T17:32:46.486Z,97031.97
2022-08-26T17:35:16.037Z,97045.97
2022-08-26T17:37:43.368Z,97036.81
2022-08-26T17:40:15.411Z,97039.44
2022-08-26T17:42:42.218Z,97044.38
2022-08-26T17:45:10.553Z,97047.78
2022-08-26T17:47:38.263Z,97040.97
2022-08-26T17:50:07.061Z,97048.47
2022-08-26T17:52:33.712Z,97051.34
2022-08-26T17:55:00.538Z,97052.09
2022-08-26T17:57:27.298Z,97050.88
2022-08-26T17:59:56.556Z,97054.28
2022-08-26T18:02:23.937Z,97060.34
2022-08-26T18:04:50.598Z,97057.25
2022-08-26T18:07:17.735Z,97063.94
2022-08-26T18:09:44.628Z,97065.75
2022-08-26T18:12:12.034Z,97069.19
2022-08-26T18:14:38.888Z,97066.88
2022-08-26T18:17:05.935Z,97066.72
2022-08-26T18:19:32.749Z,97079.59
2022-08-26T18:21:59.546Z,97086.44
2022-08-26T18:24:30.301Z,97077.09
2022-08-26T18:26:57.260Z,97076.22
2022-08-26T18:29:25.443Z,97081.16
2022-08-26T18:31:52.497Z,97080.72
2022-08-26T18:34:19.772Z,97084.25
2022-08-26T18:36:47.575Z,97086.50
2022-08-26T18:39:15.474Z,97081.28
2022-08-26T18:41:45.585Z,97082.59
2022-08-26T18:44:14.740Z,97079.47
2022-08-26T18:46:41.809Z,97093.47
2022-08-26T18:49:10.773Z,97098.50
2022-08-26T18:51:37.985Z,97093.28
2022-08-26T18:54:06.777Z,97094.81
2022-08-26T18:56:35.465Z,97097.47
2022-08-26T18:59:03.211Z,97099.59
2022-08-26T19:01:31.156Z,97101.47
2022-08-26T19:04:00.005Z,97108.94
2022-08-26T19:06:29.409Z,97110.13
2022-08-26T19:08:58.171Z,97114.88
2022-08-26T19:11:32.324Z,97110.22
2022-08-26T19:14:07.205Z,97117.47
2022-08-26T19:16:34.177Z,97122.72
2022-08-26T19:19:01.935Z,97124.13
2022-08-26T19:21:29.687Z,97116.09
2022-08-26T19:23:58.911Z,97127.19
2022-08-26T19:26:27.042Z,97125.09
2022-08-26T19:28:54.340Z,97127.63
2022-08-26T19:31:21.553Z,97127.06
2022-08-26T19:33:48.391Z,97134.25
2022-08-26T19:36:18.599Z,97138.78
2022-08-26T19:38:45.868Z,97146.63
2022-08-26T19:41:36.998Z,97143.56
2022-08-26T19:44:13.081Z,97134.94
2022-08-26T19:46:40.598Z,97140.19
2022-08-26T19:49:07.405Z,97144.94
2022-08-26T19:51:35.430Z,97148.56
2022-08-26T19:54:02.915Z,97140.38
2022-08-26T19:56:29.872Z,97144.13
2022-08-26T19:58:56.967Z,97143.06
2022-08-26T20:01:24.404Z,97140.03
2022-08-26T20:03:51.355Z,97137.56
2022-08-26T20:06:18.630Z,97129.78
2022-08-26T20:08:45.873Z,97132.22
2022-08-26T20:11:15.806Z,97132.47
2022-08-26T20:13:43.838Z,97128.50
2022-08-26T20:16:12.070Z,97125.22
2022-08-26T20:18:59.579Z,97125.78
2022-08-26T20:21:27.581Z,97122.63
2022-08-26T20:24:01.318Z,97119.34
2022-08-26T20:26:31.656Z,97119.69
2022-08-26T20:29:01.282Z,97126.78
2022-08-26T20:31:28.663Z,97120.25
2022-08-26T20:33:55.663Z,97120.72
2022-08-26T20:36:26.753Z,97112.91
2022-08-26T20:41:22.049Z,97131.16
2022-08-26T20:43:48.811Z,97131.97
2022-08-26T20:46:17.383Z,97129.56
2022-08-26T20:48:44.603Z,97133.38
2022-08-26T20:51:11.649Z,97142.56
2022-08-26T20:53:38.470Z,97132.94
2022-08-26T20:56:08.632Z,97141.81
2022-08-26T20:58:36.507Z,97137.41
2022-08-26T21:01:07.518Z,97141.44
2022-08-26T21:03:35.972Z,97140.69
2022-08-26T21:06:03.723Z,97138.34
2022-08-26T21:08:33.156Z,97140.25
2022-08-26T21:11:00.852Z,97135.94
2022-08-26T21:13:35.773Z,97146.25
2022-08-26T21:16:11.066Z,97139.50
2022-08-26T21:18:38.869Z,97139.16
2022-08-26T21:21:08.982Z,97145.22
2022-08-26T21:23:36.670Z,97145.44
2022-08-26T21:26:05.532Z,97140.84
2022-08-26T21:28:32.466Z,97138.41
2022-08-26T21:31:03.809Z,97139.28
2022-08-26T21:33:30.574Z,97141.19
2022-08-26T21:35:57.325Z,97142.50
2022-08-26T21:38:24.002Z,97151.31
2022-08-26T21:41:02.450Z,97149.50
2022-08-26T21:43:35.557Z,97142.28
2022-08-26T21:46:14.379Z,97149.09
2022-08-26T21:48:50.724Z,97149.97
2022-08-26T21:51:20.873Z,97147.75
2022-08-26T21:53:48.220Z,97142.25
2022-08-26T21:56:18.069Z,97142.66
2022-08-26T21:58:44.838Z,97138.56
2022-08-26T22:01:17.304Z,97136.75
2022-08-26T22:03:47.568Z,97139.22
2022-08-26T22:06:19.790Z,97143.41
2022-08-26T22:08:46.650Z,97129.28
2022-08-26T22:11:14.220Z,97133.78
2022-08-26T22:13:42.537Z,97131.94
2022-08-26T22:16:09.933Z,97127.63
2022-08-26T22:18:37.839Z,97131.75
2022-08-26T22:21:10.058Z,97131.19
2022-08-26T22:23:38.076Z,97129.59
2022-08-26T22:26:09.971Z,97127.97
2022-08-26T22:28:36.939Z,97127.72
2022-08-26T22:31:03.634Z,97126.31
2022-08-26T22:33:30.460Z,97118.94
2022-08-26T22:35:57.141Z,97124.94
2022-08-26T22:38:23.943Z,97115.09
2022-08-26T22:40:56.049Z,97123.25
2022-08-26T22:43:24.794Z,97120.81
2022-08-26T22:45:52.971Z,97127.19
2022-08-26T22:48:25.128Z,97119.59
2022-08-26T22:50:58.253Z,97119.22
2022-08-26T22:53:26.967Z,97119.00
2022-08-26T22:55:54.421Z,97121.28
2022-08-26T22:58:21.723Z,97123.78
2022-08-26T23:00:59.300Z,97119.09
2022-08-26T23:03:26.767Z,97127.13
2022-08-26T23:05:55.478Z,97124.28
2022-08-26T23:08:23.600Z,97115.25
2022-08-26T23:10:51.291Z,97116.94
2022-08-26T23:13:18.735Z,97108.94
2022-08-26T23:15:46.322Z,97117.97
2022-08-26T23:18:14.552Z,97112.81
2022-08-26T23:20:41.877Z,97109.09
2022-08-26T23:23:08.727Z,97104.38
2022-08-26T23:25:35.546Z,97109.38
2022-08-26T23:28:02.759Z,97104.88
2022-08-26T23:30:32.483Z,97108.19
2022-08-26T23:32:59.517Z,97109.44
2022-08-26T23:35:27.229Z,97106.13
2022-08-26T23:37:53.943Z,97110.69
2022-08-26T23:40:25.645Z,97102.69
2022-08-26T23:42:54.281Z,97105.97
2022-08-26T23:45:22.511Z,97101.00
2022-08-26T23:47:53.291Z,97113.34
2022-08-26T23:50:48.640Z,97116.66
2022-08-26T23:53:22.232Z,97102.72
2022-08-26T23:55:51.723Z,97103.19
2022-08-26T23:58:20.377Z,97102.56
